sensor_id;sensor_type;location;lat;lon;timestamp;pressure;altitude;pressure_sealevel;temperature;humidity
66430;BME280;53242;51.694;10.006;2024-03-25T00:00:16;98298.72;;;5.14;96.75
66430;BME280;53242;51.694;10.006;2024-03-25T00:02:39;98302.13;;;5.15;96.45
66430;BME280;53242;51.694;10.006;2024-03-25T00:05:01;98295.25;;;5.14;96.35
66430;BME280;53242;51.694;10.006;2024-03-25T00:07:24;98298.56;;;5.22;96.11
66430;BME280;53242;51.694;10.006;2024-03-25T00:09:46;98306.56;;;5.14;96.39
66430;BME280;53242;51.694;10.006;2024-03-25T00:12:09;98300.75;;;4.97;97.04
66430;BME280;53242;51.694;10.006;2024-03-25T00:14:31;98308.97;;;4.94;96.87
66430;BME280;53242;51.694;10.006;2024-03-25T00:16:54;98309.28;;;5.06;97.09
66430;BME280;53242;51.694;10.006;2024-03-25T00:19:16;98303.44;;;5.04;96.98
66430;BME280;53242;51.694;10.006;2024-03-25T00:21:39;98300.19;;;5.02;97.11
66430;BME280;53242;51.694;10.006;2024-03-25T00:24:01;98303.00;;;5.22;97.33
66430;BME280;53242;51.694;10.006;2024-03-25T00:26:23;98306.97;;;5.18;96.73
66430;BME280;53242;51.694;10.006;2024-03-25T00:28:46;98300.06;;;5.10;97.09
66430;BME280;53242;51.694;10.006;2024-03-25T00:31:08;98305.59;;;5.22;96.66
66430;BME280;53242;51.694;10.006;2024-03-25T00:33:31;98310.22;;;5.20;96.59
66430;BME280;53242;51.694;10.006;2024-03-25T00:35:54;98304.72;;;5.15;96.84
66430;BME280;53242;51.694;10.006;2024-03-25T00:38:17;98305.41;;;5.23;96.58
66430;BME280;53242;51.694;10.006;2024-03-25T00:40:39;98304.72;;;5.36;96.35
66430;BME280;53242;51.694;10.006;2024-03-25T00:43:01;98312.88;;;5.26;96.63
66430;BME280;53242;51.694;10.006;2024-03-25T00:45:24;98305.66;;;5.29;96.82
66430;BME280;53242;51.694;10.006;2024-03-25T00:47:52;98311.69;;;5.29;96.62
66430;BME280;53242;51.694;10.006;2024-03-25T00:50:15;98312.72;;;5.28;97.43
66430;BME280;53242;51.694;10.006;2024-03-25T00:52:37;98318.34;;;5.32;96.64
66430;BME280;53242;51.694;10.006;2024-03-25T00:54:59;98320.81;;;5.33;97.10
66430;BME280;53242;51.694;10.006;2024-03-25T00:57:22;98319.25;;;5.17;97.84
66430;BME280;53242;51.694;10.006;2024-03-25T00:59:45;98322.66;;;5.18;97.68
66430;BME280;53242;51.694;10.006;2024-03-25T01:02:07;98326.59;;;5.07;98.36
66430;BME280;53242;51.694;10.006;2024-03-25T01:04:30;98324.03;;;5.14;98.09
66430;BME280;53242;51.694;10.006;2024-03-25T01:06:53;98330.09;;;5.14;97.73
66430;BME280;53242;51.694;10.006;2024-03-25T01:09:15;98329.16;;;5.00;98.68
66430;BME280;53242;51.694;10.006;2024-03-25T01:11:38;98331.97;;;4.99;98.97
66430;BME280;53242;51.694;10.006;2024-03-25T01:14:00;98342.44;;;4.99;99.04
66430;BME280;53242;51.694;10.006;2024-03-25T01:16:23;98337.31;;;4.90;98.95
66430;BME280;53242;51.694;10.006;2024-03-25T01:18:45;98338.19;;;4.98;98.48
66430;BME280;53242;51.694;10.006;2024-03-25T01:21:07;98338.03;;;4.84;98.75
66430;BME280;53242;51.694;10.006;2024-03-25T01:23:30;98343.53;;;4.89;98.81
66430;BME280;53242;51.694;10.006;2024-03-25T01:25:52;98340.31;;;4.87;98.92
66430;BME280;53242;51.694;10.006;2024-03-25T01:28:15;98341.09;;;4.88;99.19
66430;BME280;53242;51.694;10.006;2024-03-25T01:30:37;98342.47;;;4.84;99.16
66430;BME280;53242;51.694;10.006;2024-03-25T01:33:02;98344.44;;;4.82;98.43
66430;BME280;53242;51.694;10.006;2024-03-25T01:35:24;98342.66;;;4.82;98.47
66430;BME280;53242;51.694;10.006;2024-03-25T01:37:48;98352.13;;;4.83;97.92
66430;BME280;53242;51.694;10.006;2024-03-25T01:40:11;98347.69;;;4.84;97.85
66430;BME280;53242;51.694;10.006;2024-03-25T01:42:33;98350.56;;;4.89;98.02
66430;BME280;53242;51.694;10.006;2024-03-25T01:44:56;98354.09;;;4.81;98.21
66430;BME280;53242;51.694;10.006;2024-03-25T01:47:18;98353.00;;;4.90;97.96
66430;BME280;53242;51.694;10.006;2024-03-25T01:49:40;98353.41;;;4.72;98.83
66430;BME280;53242;51.694;10.006;2024-03-25T01:52:03;98354.16;;;4.88;98.46
66430;BME280;53242;51.694;10.006;2024-03-25T01:54:26;98354.09;;;4.81;99.17
66430;BME280;53242;51.694;10.006;2024-03-25T01:56:49;98361.75;;;4.83;99.43
66430;BME280;53242;51.694;10.006;2024-03-25T01:59:13;98357.16;;;4.85;100.00
66430;BME280;53242;51.694;10.006;2024-03-25T02:01:37;98357.97;;;4.85;99.89
66430;BME280;53242;51.694;10.006;2024-03-25T02:04:00;98367.25;;;4.88;99.77
66430;BME280;53242;51.694;10.006;2024-03-25T02:06:24;98363.44;;;4.90;99.09
66430;BME280;53242;51.694;10.006;2024-03-25T02:08:48;98362.06;;;4.94;99.10
66430;BME280;53242;51.694;10.006;2024-03-25T02:11:11;98362.97;;;5.02;99.10
66430;BME280;53242;51.694;10.006;2024-03-25T02:13:37;98371.09;;;4.92;99.37
66430;BME280;53242;51.694;10.006;2024-03-25T02:15:59;98367.81;;;5.05;99.08
66430;BME280;53242;51.694;10.006;2024-03-25T02:18:22;98361.13;;;5.02;99.58
66430;BME280;53242;51.694;10.006;2024-03-25T02:20:45;98360.47;;;5.15;99.18
66430;BME280;53242;51.694;10.006;2024-03-25T02:23:08;98364.84;;;5.08;99.54
66430;BME280;53242;51.694;10.006;2024-03-25T02:25:32;98366.28;;;5.10;99.51
66430;BME280;53242;51.694;10.006;2024-03-25T02:27:55;98361.72;;;5.19;99.63
66430;BME280;53242;51.694;10.006;2024-03-25T02:30:18;98359.81;;;5.28;98.74
66430;BME280;53242;51.694;10.006;2024-03-25T02:32:40;98361.84;;;5.33;98.17
66430;BME280;53242;51.694;10.006;2024-03-25T02:35:05;98363.63;;;5.54;97.72
66430;BME280;53242;51.694;10.006;2024-03-25T02:37:28;98358.16;;;5.49;97.91
66430;BME280;53242;51.694;10.006;2024-03-25T02:39:50;98367.13;;;5.39;97.33
66430;BME280;53242;51.694;10.006;2024-03-25T02:42:13;98375.03;;;5.46;97.35
66430;BME280;53242;51.694;10.006;2024-03-25T02:44:35;98366.94;;;5.41;97.69
66430;BME280;53242;51.694;10.006;2024-03-25T02:46:58;98377.66;;;5.24;98.05
66430;BME280;53242;51.694;10.006;2024-03-25T02:49:20;98373.44;;;5.23;98.15
66430;BME280;53242;51.694;10.006;2024-03-25T02:51:43;98382.41;;;5.14;98.79
66430;BME280;53242;51.694;10.006;2024-03-25T02:54:05;98386.88;;;4.99;99.53
66430;BME280;53242;51.694;10.006;2024-03-25T02:56:28;98389.50;;;4.99;100.00
66430;BME280;53242;51.694;10.006;2024-03-25T02:58:50;98391.41;;;4.90;100.00
66430;BME280;53242;51.694;10.006;2024-03-25T03:01:12;98389.53;;;4.84;100.00
66430;BME280;53242;51.694;10.006;2024-03-25T03:03:35;98394.94;;;4.82;100.00
66430;BME280;53242;51.694;10.006;2024-03-25T03:05:57;98394.63;;;4.92;100.00
66430;BME280;53242;51.694;10.006;2024-03-25T03:08:20;98401.78;;;4.83;100.00
66430;BME280;53242;51.694;10.006;2024-03-25T03:10:42;98399.50;;;4.95;100.00
66430;BME280;53242;51.694;10.006;2024-03-25T03:13:04;98407.53;;;4.93;100.00
66430;BME280;53242;51.694;10.006;2024-03-25T03:15:27;98405.97;;;4.99;100.00
66430;BME280;53242;51.694;10.006;2024-03-25T03:17:49;98404.03;;;4.86;100.00
66430;BME280;53242;51.694;10.006;2024-03-25T03:20:12;98402.56;;;4.99;100.00
66430;BME280;53242;51.694;10.006;2024-03-25T03:22:35;98412.09;;;5.06;100.00
66430;BME280;53242;51.694;10.006;2024-03-25T03:24:57;98402.41;;;5.22;100.00
66430;BME280;53242;51.694;10.006;2024-03-25T03:27:20;98404.19;;;5.43;100.00
66430;BME280;53242;51.694;10.006;2024-03-25T03:29:42;98407.06;;;5.48;100.00
66430;BME280;53242;51.694;10.006;2024-03-25T03:32:05;98402.66;;;5.49;100.00
66430;BME280;53242;51.694;10.006;2024-03-25T03:34:27;98411.25;;;5.42;100.00
66430;BME280;53242;51.694;10.006;2024-03-25T03:36:49;98417.16;;;5.51;100.00
66430;BME280;53242;51.694;10.006;2024-03-25T03:39:15;98418.66;;;5.39;100.00
66430;BME280;53242;51.694;10.006;2024-03-25T03:41:37;98428.88;;;5.34;100.00
66430;BME280;53242;51.694;10.006;2024-03-25T03:44:00;98429.25;;;5.31;100.00
66430;BME280;53242;51.694;10.006;2024-03-25T03:46:22;98427.63;;;5.30;99.53
66430;BME280;53242;51.694;10.006;2024-03-25T03:48:44;98430.28;;;5.36;99.21
66430;BME280;53242;51.694;10.006;2024-03-25T03:51:08;98436.28;;;5.30;98.91
66430;BME280;53242;51.694;10.006;2024-03-25T03:53:31;98443.81;;;5.18;99.42
66430;BME280;53242;51.694;10.006;2024-03-25T03:55:59;98442.69;;;5.27;98.53
66430;BME280;53242;51.694;10.006;2024-03-25T03:58:22;98449.50;;;5.07;98.24
66430;BME280;53242;51.694;10.006;2024-03-25T04:00:45;98444.66;;;5.25;97.08
66430;BME280;53242;51.694;10.006;2024-03-25T04:03:07;98440.19;;;5.19;96.44
66430;BME280;53242;51.694;10.006;2024-03-25T04:05:31;98439.50;;;5.10;97.32
66430;BME280;53242;51.694;10.006;2024-03-25T04:07:53;98442.19;;;5.17;97.04
66430;BME280;53242;51.694;10.006;2024-03-25T04:10:16;98437.06;;;5.09;97.09
66430;BME280;53242;51.694;10.006;2024-03-25T04:12:41;98448.72;;;5.06;97.19
66430;BME280;53242;51.694;10.006;2024-03-25T04:15:04;98444.09;;;5.08;97.07
66430;BME280;53242;51.694;10.006;2024-03-25T04:17:26;98444.28;;;5.07;96.73
66430;BME280;53242;51.694;10.006;2024-03-25T04:19:49;98448.78;;;5.13;96.68
66430;BME280;53242;51.694;10.006;2024-03-25T04:22:12;98449.31;;;5.08;96.78
66430;BME280;53242;51.694;10.006;2024-03-25T04:24:34;98452.13;;;5.07;97.19
66430;BME280;53242;51.694;10.006;2024-03-25T04:26:57;98456.91;;;5.03;97.31
66430;BME280;53242;51.694;10.006;2024-03-25T04:29:19;98453.28;;;5.19;96.40
66430;BME280;53242;51.694;10.006;2024-03-25T04:31:41;98444.06;;;5.23;96.50
66430;BME280;53242;51.694;10.006;2024-03-25T04:34:04;98450.03;;;5.17;96.83
66430;BME280;53242;51.694;10.006;2024-03-25T04:36:29;98452.31;;;5.05;97.26
66430;BME280;53242;51.694;10.006;2024-03-25T04:38:51;98453.94;;;5.06;96.81
66430;BME280;53242;51.694;10.006;2024-03-25T04:41:13;98450.69;;;5.04;96.63
66430;BME280;53242;51.694;10.006;2024-03-25T04:43:36;98449.56;;;5.14;96.42
66430;BME280;53242;51.694;10.006;2024-03-25T04:46:01;98460.50;;;5.02;96.29
66430;BME280;53242;51.694;10.006;2024-03-25T04:48:23;98462.19;;;5.25;95.58
66430;BME280;53242;51.694;10.006;2024-03-25T04:50:46;98469.91;;;5.12;96.06
66430;BME280;53242;51.694;10.006;2024-03-25T04:53:10;98471.41;;;5.06;96.70
66430;BME280;53242;51.694;10.006;2024-03-25T04:55:32;98468.19;;;5.04;96.68
66430;BME280;53242;51.694;10.006;2024-03-25T04:57:54;98471.81;;;5.03;96.78
66430;BME280;53242;51.694;10.006;2024-03-25T05:00:17;98480.44;;;5.03;96.43
66430;BME280;53242;51.694;10.006;2024-03-25T05:02:40;98477.09;;;5.09;95.57
66430;BME280;53242;51.694;10.006;2024-03-25T05:05:02;98480.16;;;5.13;95.69
66430;BME280;53242;51.694;10.006;2024-03-25T05:07:25;98483.03;;;5.18;95.20
66430;BME280;53242;51.694;10.006;2024-03-25T05:09:47;98485.22;;;5.15;95.39
66430;BME280;53242;51.694;10.006;2024-03-25T05:12:09;98484.44;;;4.99;95.72
66430;BME280;53242;51.694;10.006;2024-03-25T05:14:32;98491.91;;;5.02;95.49
66430;BME280;53242;51.694;10.006;2024-03-25T05:16:54;98497.88;;;4.96;95.33
66430;BME280;53242;51.694;10.006;2024-03-25T05:19:17;98500.22;;;4.91;95.54
66430;BME280;53242;51.694;10.006;2024-03-25T05:21:39;98495.00;;;4.91;95.69
66430;BME280;53242;51.694;10.006;2024-03-25T05:24:01;98503.53;;;5.00;95.17
66430;BME280;53242;51.694;10.006;2024-03-25T05:26:24;98504.16;;;5.17;94.74
66430;BME280;53242;51.694;10.006;2024-03-25T05:29:00;98510.91;;;5.11;94.43
66430;BME280;53242;51.694;10.006;2024-03-25T05:31:23;98510.72;;;5.13;94.45
66430;BME280;53242;51.694;10.006;2024-03-25T05:33:45;98512.91;;;5.09;94.75
66430;BME280;53242;51.694;10.006;2024-03-25T05:36:09;98511.81;;;5.03;94.87
66430;BME280;53242;51.694;10.006;2024-03-25T05:38:31;98516.53;;;5.08;94.67
66430;BME280;53242;51.694;10.006;2024-03-25T05:40:54;98513.25;;;5.06;94.46
66430;BME280;53242;51.694;10.006;2024-03-25T05:43:17;98520.66;;;5.17;93.61
66430;BME280;53242;51.694;10.006;2024-03-25T05:45:40;98529.66;;;5.15;93.62
66430;BME280;53242;51.694;10.006;2024-03-25T05:48:02;98528.50;;;5.17;93.91
66430;BME280;53242;51.694;10.006;2024-03-25T05:50:24;98528.97;;;5.06;94.15
66430;BME280;53242;51.694;10.006;2024-03-25T05:52:47;98531.19;;;5.24;93.22
66430;BME280;53242;51.694;10.006;2024-03-25T05:55:09;98531.84;;;5.11;93.48
66430;BME280;53242;51.694;10.006;2024-03-25T05:57:32;98533.44;;;5.27;92.86
66430;BME280;53242;51.694;10.006;2024-03-25T05:59:55;98545.19;;;5.16;93.12
66430;BME280;53242;51.694;10.006;2024-03-25T06:02:17;98550.22;;;5.18;93.24
66430;BME280;53242;51.694;10.006;2024-03-25T06:04:40;98540.25;;;5.43;92.75
66430;BME280;53242;51.694;10.006;2024-03-25T06:07:02;98543.88;;;5.42;92.05
66430;BME280;53242;51.694;10.006;2024-03-25T06:09:25;98549.28;;;5.40;92.50
66430;BME280;53242;51.694;10.006;2024-03-25T06:11:47;98546.88;;;5.24;92.73
66430;BME280;53242;51.694;10.006;2024-03-25T06:14:09;98543.44;;;5.38;92.44
66430;BME280;53242;51.694;10.006;2024-03-25T06:16:32;98550.91;;;5.41;92.31
66430;BME280;53242;51.694;10.006;2024-03-25T06:18:54;98551.63;;;5.50;91.98
66430;BME280;53242;51.694;10.006;2024-03-25T06:21:17;98554.53;;;5.40;92.55
66430;BME280;53242;51.694;10.006;2024-03-25T06:23:39;98561.91;;;5.37;92.35
66430;BME280;53242;51.694;10.006;2024-03-25T06:26:02;98558.97;;;5.40;92.27
66430;BME280;53242;51.694;10.006;2024-03-25T06:28:25;98560.19;;;5.44;91.97
66430;BME280;53242;51.694;10.006;2024-03-25T06:30:48;98563.09;;;5.34;92.04
66430;BME280;53242;51.694;10.006;2024-03-25T06:33:29;98560.84;;;5.46;91.98
66430;BME280;53242;51.694;10.006;2024-03-25T06:36:10;98568.69;;;5.46;92.17
66430;BME280;53242;51.694;10.006;2024-03-25T06:38:32;98573.34;;;5.51;91.83
66430;BME280;53242;51.694;10.006;2024-03-25T06:40:55;98576.94;;;5.65;91.03
66430;BME280;53242;51.694;10.006;2024-03-25T06:43:17;98574.78;;;5.53;91.51
66430;BME280;53242;51.694;10.006;2024-03-25T06:45:41;98581.19;;;5.66;90.47
66430;BME280;53242;51.694;10.006;2024-03-25T06:48:03;98581.44;;;5.71;90.80
66430;BME280;53242;51.694;10.006;2024-03-25T06:50:26;98584.00;;;5.64;90.86
66430;BME280;53242;51.694;10.006;2024-03-25T06:52:49;98583.69;;;5.74;91.00
66430;BME280;53242;51.694;10.006;2024-03-25T06:55:12;98586.34;;;5.81;91.64
66430;BME280;53242;51.694;10.006;2024-03-25T06:57:34;98587.09;;;5.96;92.13
66430;BME280;53242;51.694;10.006;2024-03-25T06:59:57;98590.31;;;5.91;92.99
66430;BME280;53242;51.694;10.006;2024-03-25T07:02:20;98584.31;;;5.98;92.67
66430;BME280;53242;51.694;10.006;2024-03-25T07:04:42;98590.41;;;5.98;93.00
66430;BME280;53242;51.694;10.006;2024-03-25T07:07:04;98598.66;;;5.80;93.29
66430;BME280;53242;51.694;10.006;2024-03-25T07:09:27;98596.16;;;5.72;93.05
66430;BME280;53242;51.694;10.006;2024-03-25T07:11:49;98597.84;;;5.80;92.93
66430;BME280;53242;51.694;10.006;2024-03-25T07:14:12;98596.53;;;5.90;92.33
66430;BME280;53242;51.694;10.006;2024-03-25T07:16:34;98601.84;;;5.97;90.58
66430;BME280;53242;51.694;10.006;2024-03-25T07:18:57;98609.44;;;6.07;91.33
66430;BME280;53242;51.694;10.006;2024-03-25T07:21:19;98619.16;;;6.13;91.54
66430;BME280;53242;51.694;10.006;2024-03-25T07:23:41;98619.06;;;6.06;91.62
66430;BME280;53242;51.694;10.006;2024-03-25T07:26:04;98627.88;;;6.20;90.69
66430;BME280;53242;51.694;10.006;2024-03-25T07:28:26;98623.63;;;6.19;90.75
66430;BME280;53242;51.694;10.006;2024-03-25T07:30:50;98624.00;;;6.16;90.11
66430;BME280;53242;51.694;10.006;2024-03-25T07:33:12;98621.09;;;6.26;89.49
66430;BME280;53242;51.694;10.006;2024-03-25T07:35:35;98627.28;;;6.18;89.06
66430;BME280;53242;51.694;10.006;2024-03-25T07:37:58;98624.94;;;6.30;86.78
66430;BME280;53242;51.694;10.006;2024-03-25T07:40:21;98619.97;;;6.35;86.95
66430;BME280;53242;51.694;10.006;2024-03-25T07:42:44;98626.50;;;6.24;87.01
66430;BME280;53242;51.694;10.006;2024-03-25T07:45:07;98630.75;;;6.47;85.03
66430;BME280;53242;51.694;10.006;2024-03-25T07:47:29;98632.97;;;6.79;84.36
66430;BME280;53242;51.694;10.006;2024-03-25T07:49:53;98637.44;;;6.78;84.29
66430;BME280;53242;51.694;10.006;2024-03-25T07:52:16;98642.81;;;6.70;84.81
66430;BME280;53242;51.694;10.006;2024-03-25T07:54:38;98639.09;;;6.57;84.77
66430;BME280;53242;51.694;10.006;2024-03-25T07:57:01;98647.59;;;6.38;84.41
66430;BME280;53242;51.694;10.006;2024-03-25T07:59:23;98646.94;;;6.57;83.88
66430;BME280;53242;51.694;10.006;2024-03-25T08:01:46;98648.09;;;6.48;83.26
66430;BME280;53242;51.694;10.006;2024-03-25T08:04:08;98646.09;;;6.79;82.37
66430;BME280;53242;51.694;10.006;2024-03-25T08:06:31;98643.91;;;6.82;83.54
66430;BME280;53242;51.694;10.006;2024-03-25T08:08:53;98642.59;;;6.93;83.72
66430;BME280;53242;51.694;10.006;2024-03-25T08:11:15;98651.44;;;6.92;84.21
66430;BME280;53242;51.694;10.006;2024-03-25T08:13:38;98645.94;;;7.15;85.13
66430;BME280;53242;51.694;10.006;2024-03-25T08:16:00;98647.72;;;7.08;84.78
66430;BME280;53242;51.694;10.006;2024-03-25T08:18:23;98644.25;;;7.01;84.33
66430;BME280;53242;51.694;10.006;2024-03-25T08:20:45;98642.69;;;7.13;83.66
66430;BME280;53242;51.694;10.006;2024-03-25T08:23:08;98645.44;;;7.33;83.04
66430;BME280;53242;51.694;10.006;2024-03-25T08:25:31;98631.06;;;7.78;81.43
66430;BME280;53242;51.694;10.006;2024-03-25T08:27:53;98632.81;;;8.39;81.36
66430;BME280;53242;51.694;10.006;2024-03-25T08:30:16;98638.09;;;8.79;78.63
66430;BME280;53242;51.694;10.006;2024-03-25T08:32:38;98645.34;;;8.30;78.14
66430;BME280;53242;51.694;10.006;2024-03-25T08:35:01;98635.59;;;8.04;78.93
66430;BME280;53242;51.694;10.006;2024-03-25T08:37:23;98643.06;;;7.94;78.38
66430;BME280;53242;51.694;10.006;2024-03-25T08:39:46;98647.78;;;7.63;78.08
66430;BME280;53242;51.694;10.006;2024-03-25T08:42:10;98648.56;;;7.57;78.36
66430;BME280;53242;51.694;10.006;2024-03-25T08:44:32;98649.94;;;7.46;78.56
66430;BME280;53242;51.694;10.006;2024-03-25T08:46:55;98644.38;;;7.28;77.71
66430;BME280;53242;51.694;10.006;2024-03-25T08:49:17;98656.38;;;7.37;77.31
66430;BME280;53242;51.694;10.006;2024-03-25T08:51:40;98657.50;;;7.28;76.93
66430;BME280;53242;51.694;10.006;2024-03-25T08:54:02;98661.88;;;7.49;76.01
66430;BME280;53242;51.694;10.006;2024-03-25T08:56:25;98655.56;;;7.43;75.02
66430;BME280;53242;51.694;10.006;2024-03-25T08:58:47;98658.81;;;7.45;75.51
66430;BME280;53242;51.694;10.006;2024-03-25T09:01:09;98665.28;;;7.43;75.09
66430;BME280;53242;51.694;10.006;2024-03-25T09:03:36;98664.88;;;7.46;75.08
66430;BME280;53242;51.694;10.006;2024-03-25T09:05:58;98662.13;;;7.61;72.32
66430;BME280;53242;51.694;10.006;2024-03-25T09:08:21;98657.06;;;7.52;73.13
66430;BME280;53242;51.694;10.006;2024-03-25T09:10:44;98660.22;;;7.41;72.76
66430;BME280;53242;51.694;10.006;2024-03-25T09:13:25;98660.00;;;7.36;70.70
66430;BME280;53242;51.694;10.006;2024-03-25T09:15:47;98659.84;;;7.51;69.97
66430;BME280;53242;51.694;10.006;2024-03-25T09:18:09;98653.66;;;7.65;69.53
66430;BME280;53242;51.694;10.006;2024-03-25T09:20:32;98651.28;;;7.84;66.32
66430;BME280;53242;51.694;10.006;2024-03-25T09:22:55;98652.78;;;8.06;65.79
66430;BME280;53242;51.694;10.006;2024-03-25T09:25:17;98651.47;;;7.76;64.51
66430;BME280;53242;51.694;10.006;2024-03-25T09:27:40;98657.72;;;7.68;63.91
66430;BME280;53242;51.694;10.006;2024-03-25T09:30:03;98656.28;;;7.65;63.76
66430;BME280;53242;51.694;10.006;2024-03-25T09:32:26;98667.84;;;7.78;64.71
66430;BME280;53242;51.694;10.006;2024-03-25T09:34:48;98672.28;;;7.70;65.47
66430;BME280;53242;51.694;10.006;2024-03-25T09:37:12;98675.28;;;7.74;66.53
66430;BME280;53242;51.694;10.006;2024-03-25T09:39:34;98681.72;;;7.65;66.61
66430;BME280;53242;51.694;10.006;2024-03-25T09:41:57;98677.13;;;7.73;67.07
66430;BME280;53242;51.694;10.006;2024-03-25T09:44:24;98676.47;;;7.65;67.44
66430;BME280;53242;51.694;10.006;2024-03-25T09:46:47;98675.38;;;7.87;67.47
66430;BME280;53242;51.694;10.006;2024-03-25T09:49:09;98679.09;;;7.65;69.26
66430;BME280;53242;51.694;10.006;2024-03-25T09:51:32;98680.19;;;7.84;69.92
66430;BME280;53242;51.694;10.006;2024-03-25T09:53:54;98686.78;;;7.66;70.47
66430;BME280;53242;51.694;10.006;2024-03-25T09:56:16;98680.50;;;7.61;69.63
66430;BME280;53242;51.694;10.006;2024-03-25T09:58:40;98672.81;;;7.52;68.06
66430;BME280;53242;51.694;10.006;2024-03-25T10:01:02;98688.22;;;7.69;67.37
66430;BME280;53242;51.694;10.006;2024-03-25T10:03:25;98680.72;;;7.66;66.80
66430;BME280;53242;51.694;10.006;2024-03-25T10:05:47;98674.97;;;7.90;66.11
66430;BME280;53242;51.694;10.006;2024-03-25T10:08:10;98672.53;;;7.82;66.62
66430;BME280;53242;51.694;10.006;2024-03-25T10:10:35;98679.13;;;7.71;66.18
66430;BME280;53242;51.694;10.006;2024-03-25T10:12:59;98666.25;;;7.83;65.23
66430;BME280;53242;51.694;10.006;2024-03-25T10:15:22;98669.06;;;7.82;64.72
66430;BME280;53242;51.694;10.006;2024-03-25T10:17:44;98673.38;;;7.96;64.95
66430;BME280;53242;51.694;10.006;2024-03-25T10:20:07;98668.81;;;7.70;64.49
66430;BME280;53242;51.694;10.006;2024-03-25T10:22:41;98664.22;;;7.79;64.85
66430;BME280;53242;51.694;10.006;2024-03-25T10:25:03;98666.47;;;7.88;64.83
66430;BME280;53242;51.694;10.006;2024-03-25T10:27:26;98663.00;;;7.81;64.61
66430;BME280;53242;51.694;10.006;2024-03-25T10:29:53;98662.44;;;7.93;64.28
66430;BME280;53242;51.694;10.006;2024-03-25T10:32:17;98660.66;;;8.06;63.85
66430;BME280;53242;51.694;10.006;2024-03-25T10:34:40;98666.34;;;8.17;63.75
66430;BME280;53242;51.694;10.006;2024-03-25T10:37:03;98664.56;;;8.44;63.22
66430;BME280;53242;51.694;10.006;2024-03-25T10:39:27;98655.66;;;8.32;63.74
66430;BME280;53242;51.694;10.006;2024-03-25T10:41:56;98653.84;;;8.39;63.08
66430;BME280;53242;51.694;10.006;2024-03-25T10:44:19;98654.91;;;8.58;62.76
66430;BME280;53242;51.694;10.006;2024-03-25T10:46:43;98656.50;;;8.79;62.58
66430;BME280;53242;51.694;10.006;2024-03-25T10:49:16;98652.66;;;8.88;60.72
66430;BME280;53242;51.694;10.006;2024-03-25T10:51:44;98651.66;;;9.03;61.37
66430;BME280;53242;51.694;10.006;2024-03-25T10:54:06;98661.78;;;8.93;61.58
66430;BME280;53242;51.694;10.006;2024-03-25T10:56:30;98662.75;;;9.05;61.68
66430;BME280;53242;51.694;10.006;2024-03-25T10:58:52;98645.72;;;9.28;60.65
66430;BME280;53242;51.694;10.006;2024-03-25T11:01:19;98641.03;;;9.30;59.58
66430;BME280;53242;51.694;10.006;2024-03-25T11:03:42;98643.28;;;9.33;60.01
66430;BME280;53242;51.694;10.006;2024-03-25T11:06:05;98637.81;;;9.28;60.10
66430;BME280;53242;51.694;10.006;2024-03-25T11:08:31;98642.53;;;9.05;59.30
66430;BME280;53242;51.694;10.006;2024-03-25T11:10:55;98648.41;;;9.01;60.13
66430;BME280;53242;51.694;10.006;2024-03-25T11:13:17;98635.75;;;9.43;58.77
66430;BME280;53242;51.694;10.006;2024-03-25T11:15:41;98634.63;;;9.12;59.94
66430;BME280;53242;51.694;10.006;2024-03-25T11:18:11;98632.50;;;9.41;59.49
66430;BME280;53242;51.694;10.006;2024-03-25T11:20:33;98631.16;;;9.18;59.24
66430;BME280;53242;51.694;10.006;2024-03-25T11:22:55;98628.06;;;9.42;59.16
66430;BME280;53242;51.694;10.006;2024-03-25T11:25:20;98621.75;;;9.49;58.81
66430;BME280;53242;51.694;10.006;2024-03-25T11:27:44;98621.78;;;9.36;58.87
66430;BME280;53242;51.694;10.006;2024-03-25T11:30:06;98619.72;;;9.45;58.89
66430;BME280;53242;51.694;10.006;2024-03-25T11:32:29;98616.16;;;9.71;58.51
66430;BME280;53242;51.694;10.006;2024-03-25T11:34:52;98619.13;;;9.43;59.48
66430;BME280;53242;51.694;10.006;2024-03-25T11:37:14;98616.81;;;9.66;59.42
66430;BME280;53242;51.694;10.006;2024-03-25T11:39:37;98606.75;;;9.50;58.86
66430;BME280;53242;51.694;10.006;2024-03-25T11:41:59;98604.91;;;9.89;60.15
66430;BME280;53242;51.694;10.006;2024-03-25T11:44:21;98602.56;;;10.13;59.39
66430;BME280;53242;51.694;10.006;2024-03-25T11:46:48;98600.25;;;9.91;58.98
66430;BME280;53242;51.694;10.006;2024-03-25T11:49:14;98605.56;;;10.16;59.70
66430;BME280;53242;51.694;10.006;2024-03-25T11:51:36;98601.19;;;10.03;59.40
66430;BME280;53242;51.694;10.006;2024-03-25T11:54:03;98609.47;;;10.07;58.67
66430;BME280;53242;51.694;10.006;2024-03-25T11:56:26;98607.25;;;10.04;59.67
66430;BME280;53242;51.694;10.006;2024-03-25T11:58:48;98607.03;;;10.06;59.39
66430;BME280;53242;51.694;10.006;2024-03-25T12:01:11;98606.25;;;10.05;59.19
66430;BME280;53242;51.694;10.006;2024-03-25T12:03:33;98605.47;;;9.98;59.21
66430;BME280;53242;51.694;10.006;2024-03-25T12:05:56;98605.03;;;10.33;59.01
66430;BME280;53242;51.694;10.006;2024-03-25T12:08:19;98602.22;;;10.02;59.61
66430;BME280;53242;51.694;10.006;2024-03-25T12:10:41;98598.78;;;9.95;59.06
66430;BME280;53242;51.694;10.006;2024-03-25T12:13:23;98612.41;;;9.53;60.69
66430;BME280;53242;51.694;10.006;2024-03-25T12:15:47;98614.13;;;9.28;60.39
66430;BME280;53242;51.694;10.006;2024-03-25T12:18:10;98612.91;;;9.24;62.34
66430;BME280;53242;51.694;10.006;2024-03-25T12:20:36;98616.78;;;9.14;64.31
66430;BME280;53242;51.694;10.006;2024-03-25T12:22:58;98618.41;;;9.15;64.57
66430;BME280;53242;51.694;10.006;2024-03-25T12:25:23;98615.38;;;9.05;64.28
66430;BME280;53242;51.694;10.006;2024-03-25T12:27:46;98606.84;;;9.16;63.81
66430;BME280;53242;51.694;10.006;2024-03-25T12:30:10;98603.31;;;9.43;63.13
66430;BME280;53242;51.694;10.006;2024-03-25T12:32:43;98591.16;;;9.48;62.34
66430;BME280;53242;51.694;10.006;2024-03-25T12:35:10;98590.91;;;9.57;62.87
66430;BME280;53242;51.694;10.006;2024-03-25T12:37:34;98584.47;;;9.84;63.33